createdAt,value
2022-11-12T00:00:35.148Z,66.49
2022-11-12T00:05:53.175Z,66.48
2022-11-12T00:11:08.867Z,66.26
2022-11-12T00:16:21.232Z,66.49
2022-11-12T00:21:34.232Z,66.46
2022-11-12T00:26:46.315Z,66.62
2022-11-12T00:31:58.664Z,66.05
2022-11-12T00:37:09.979Z,66.18
2022-11-12T00:42:26.444Z,66.16
2022-11-12T00:47:38.989Z,66.57
2022-11-12T00:52:53.720Z,66.33
2022-11-12T00:58:05.897Z,66.08
2022-11-12T01:03:17.523Z,66.68
2022-11-12T01:08:31.344Z,66.50
2022-11-12T01:13:46.349Z,65.97
2022-11-12T01:19:01.095Z,66.50
2022-11-12T01:24:12.570Z,66.04
2022-11-12T01:29:24.992Z,65.91
2022-11-12T01:34:36.791Z,65.89
2022-11-12T01:39:49.182Z,66.11
2022-11-12T01:45:00.809Z,65.82
2022-11-12T01:50:14.930Z,66.13
2022-11-12T01:55:33.986Z,66.43
2022-11-12T02:00:46.754Z,65.97
2022-11-12T02:06:03.962Z,66.54
2022-11-12T02:11:18.243Z,66.42
2022-11-12T02:16:35.120Z,66.75
2022-11-12T02:21:47.876Z,66.54
2022-11-12T02:26:59.615Z,66.89
2022-11-12T02:32:10.978Z,66.69
2022-11-12T02:37:22.944Z,66.61
2022-11-12T02:42:38.188Z,65.65
2022-11-12T02:47:49.857Z,65.93
2022-11-12T02:53:02.135Z,65.90
2022-11-12T02:58:13.414Z,65.78
2022-11-12T03:03:24.831Z,66.00
2022-11-12T03:08:36.063Z,66.34
2022-11-12T03:13:48.247Z,66.33
2022-11-12T03:19:00.580Z,66.33
2022-11-12T03:24:16.613Z,66.66
2022-11-12T03:29:28.251Z,65.77
2022-11-12T03:34:40.262Z,66.63
2022-11-12T03:39:52.147Z,65.93
2022-11-12T03:45:03.430Z,65.86
2022-11-12T03:50:17.343Z,66.41
2022-11-12T03:55:30.316Z,66.81
2022-11-12T04:00:42.035Z,66.60
2022-11-12T04:06:12.319Z,66.83
2022-11-12T04:11:24.032Z,66.85
2022-11-12T04:16:54.439Z,66.80
2022-11-12T04:22:09.151Z,66.87
2022-11-12T04:27:27.580Z,66.59
2022-11-12T04:32:41.854Z,66.40
2022-11-12T04:37:57.351Z,66.56
2022-11-12T04:43:30.873Z,66.27
2022-11-12T04:48:42.674Z,66.33
2022-11-12T04:53:54.722Z,66.14
2022-11-12T04:59:05.808Z,66.15
2022-11-12T05:04:17.126Z,66.01
2022-11-12T05:09:29.505Z,65.89
2022-11-12T05:14:40.198Z,65.53
2022-11-12T05:19:52.680Z,65.79
2022-11-12T05:25:04.769Z,65.86
2022-11-12T05:30:17.216Z,65.81
2022-11-12T05:35:28.993Z,65.81
2022-11-12T05:40:46.176Z,65.92
2022-11-12T05:46:01.527Z,66.26
2022-11-12T05:51:14.494Z,66.21
2022-11-12T05:56:26.688Z,65.96
2022-11-12T06:01:44.676Z,65.35
2022-11-12T06:06:57.347Z,65.52
2022-11-12T06:12:09.237Z,66.13
2022-11-12T06:17:20.802Z,65.56
2022-11-12T06:22:32.574Z,65.21
2022-11-12T06:27:44.579Z,65.66
2022-11-12T06:32:56.183Z,65.44
2022-11-12T06:38:07.587Z,65.46
2022-11-12T06:43:18.915Z,65.40
2022-11-12T06:48:31.234Z,65.23
2022-11-12T06:53:42.209Z,65.25
2022-11-12T06:58:54.017Z,64.75
2022-11-12T07:04:06.272Z,65.04
2022-11-12T07:09:18.190Z,64.94
2022-11-12T07:14:29.904Z,65.08
2022-11-12T07:19:41.059Z,64.89
2022-11-12T07:24:53.078Z,64.60
2022-11-12T07:30:05.505Z,64.59
2022-11-12T07:35:16.674Z,64.65
2022-11-12T07:40:29.886Z,63.74
2022-11-12T07:45:41.637Z,63.77
2022-11-12T07:50:57.335Z,63.18
2022-11-12T07:56:11.582Z,62.64
2022-11-12T08:01:32.131Z,62.17
2022-11-12T08:06:44.445Z,62.03
2022-11-12T08:12:00.413Z,63.88
2022-11-12T08:17:12.063Z,59.44
2022-11-12T08:22:23.568Z,56.97
2022-11-12T08:27:34.380Z,56.74
2022-11-12T08:32:46.980Z,57.85
2022-11-12T08:38:02.568Z,57.15
2022-11-12T08:43:14.299Z,59.36
2022-11-12T08:48:26.475Z,58.86
2022-11-12T08:53:38.510Z,59.86
2022-11-12T08:58:50.877Z,60.16
2022-11-12T09:04:03.551Z,60.83
2022-11-12T09:09:15.085Z,60.32
2022-11-12T09:14:27.048Z,60.80
2022-11-12T09:19:42.956Z,61.52
2022-11-12T09:24:54.943Z,61.99
2022-11-12T09:30:09.346Z,62.77
2022-11-12T09:35:21.535Z,63.28
2022-11-12T09:40:38.674Z,63.60
2022-11-12T09:46:13.631Z,64.05
2022-11-12T09:51:29.026Z,64.42
2022-11-12T09:56:41.569Z,63.95
2022-11-12T10:02:26.482Z,64.20
2022-11-12T10:08:14.919Z,64.34
2022-11-12T10:13:38.258Z,64.65
2022-11-12T10:18:53.389Z,64.56
2022-11-12T10:24:09.061Z,64.96
2022-11-12T10:29:29.308Z,65.07
2022-11-12T10:34:45.011Z,64.87
2022-11-12T10:39:56.866Z,65.07
2022-11-12T10:45:22.808Z,65.58
2022-11-12T10:51:00.448Z,65.45
2022-11-12T10:56:32.491Z,65.76
2022-11-12T11:01:46.417Z,65.31
2022-11-12T11:07:23.071Z,65.26
2022-11-12T11:12:35.582Z,65.54
2022-11-12T11:17:47.538Z,65.69
2022-11-12T11:23:23.922Z,66.09
2022-11-12T11:28:41.510Z,66.23
2022-11-12T11:34:07.074Z,66.23
2022-11-12T11:39:31.853Z,65.96
2022-11-12T11:45:17.757Z,65.94
2022-11-12T11:50:40.509Z,66.26
2022-11-12T11:56:30.879Z,65.30
2022-11-12T12:02:09.377Z,65.47
2022-11-12T12:07:26.831Z,66.07
2022-11-12T12:12:53.597Z,66.31
2022-11-12T12:18:12.135Z,66.39
2022-11-12T12:23:42.079Z,65.61
2022-11-12T12:29:21.705Z,65.74
2022-11-12T12:34:39.583Z,66.17
2022-11-12T12:40:19.627Z,65.64
2022-11-12T12:45:46.564Z,65.56
2022-11-12T12:50:58.525Z,66.22
2022-11-12T12:56:15.178Z,65.38
2022-11-12T13:01:33.983Z,65.63
2022-11-12T13:06:47.989Z,66.20
2022-11-12T13:12:06.473Z,65.51
2022-11-12T13:17:47.877Z,65.48
2022-11-12T13:23:00.222Z,65.53
2022-11-12T13:28:14.717Z,65.67
2022-11-12T13:33:31.573Z,65.46
2022-11-12T13:38:44.258Z,65.83
2022-11-12T13:43:57.951Z,65.35
2022-11-12T13:49:16.243Z,65.59
2022-11-12T13:55:06.941Z,65.49
2022-11-12T14:00:30.162Z,65.42
2022-11-12T14:05:49.179Z,65.35
2022-11-12T14:11:09.344Z,65.51
2022-11-12T14:16:22.970Z,65.36
2022-11-12T14:21:34.727Z,65.29
2022-11-12T14:26:46.974Z,65.40
2022-11-12T14:32:03.317Z,65.42
2022-11-12T14:37:39.930Z,65.49
2022-11-12T14:42:54.798Z,65.27
2022-11-12T14:48:10.374Z,65.64
2022-11-12T14:53:28.407Z,65.49
2022-11-12T14:58:41.394Z,65.39
2022-11-12T15:03:52.737Z,65.42
2022-11-12T15:09:05.320Z,65.18
2022-11-12T15:14:25.501Z,65.04
2022-11-12T15:19:41.818Z,65.19
2022-11-12T15:24:53.741Z,64.99
2022-11-12T15:30:24.575Z,65.08
2022-11-12T15:35:38.822Z,63.79
2022-11-12T15:40:57.514Z,64.95
2022-11-12T15:46:16.414Z,65.46
2022-11-12T15:51:31.430Z,65.27
2022-11-12T15:56:43.969Z,65.18
2022-11-12T16:01:55.906Z,65.13
2022-11-12T16:07:09.760Z,65.13
2022-11-12T16:12:22.280Z,65.26
2022-11-12T16:17:34.879Z,65.10
2022-11-12T16:22:46.811Z,65.17
2022-11-12T16:27:59.394Z,65.10
2022-11-12T16:33:12.905Z,65.22
2022-11-12T16:38:26.557Z,65.18
2022-11-12T16:43:39.009Z,65.41
2022-11-12T16:48:50.752Z,65.26
2022-11-12T16:54:02.627Z,65.23
2022-11-12T16:59:17.118Z,65.22
2022-11-12T17:04:28.951Z,64.92
2022-11-12T17:09:40.924Z,65.14
2022-11-12T17:14:52.287Z,65.18
2022-11-12T17:20:05.738Z,64.94
2022-11-12T17:25:17.603Z,65.14
2022-11-12T17:30:29.662Z,65.12
2022-11-12T17:35:41.823Z,65.24
2022-11-12T17:40:57.584Z,65.17
2022-11-12T17:46:10.756Z,65.62
2022-11-12T17:51:24.746Z,65.04
2022-11-12T17:56:37.243Z,65.05
2022-11-12T18:01:49.459Z,65.13
2022-11-12T18:07:01.447Z,65.44
2022-11-12T18:12:12.458Z,64.93
2022-11-12T18:17:24.161Z,64.70
2022-11-12T18:22:44.593Z,64.58
2022-11-12T18:27:59.982Z,64.51
2022-11-12T18:33:12.572Z,64.46
2022-11-12T18:38:24.496Z,64.76
2022-11-12T18:43:39.776Z,65.32
2022-11-12T18:48:51.828Z,65.28
2022-11-12T18:54:03.625Z,66.63
2022-11-12T18:59:14.851Z,66.70
2022-11-12T19:04:26.719Z,66.74
2022-11-12T19:09:39.442Z,66.90
2022-11-12T19:14:51.577Z,66.84
2022-11-12T19:20:03.229Z,66.77
2022-11-12T19:25:14.556Z,67.27
2022-11-12T19:30:26.088Z,67.32
2022-11-12T19:35:40.670Z,67.51
2022-11-12T19:40:52.519Z,67.77
2022-11-12T19:46:03.970Z,67.81
2022-11-12T19:51:15.645Z,68.12
2022-11-12T19:56:28.177Z,67.39
2022-11-12T20:01:40.136Z,67.69
2022-11-12T20:06:52.270Z,67.24
2022-11-12T20:12:05.059Z,67.29
2022-11-12T20:17:16.834Z,67.08
2022-11-12T20:22:32.276Z,67.08
2022-11-12T20:27:43.711Z,66.23
2022-11-12T20:32:56.349Z,66.74
2022-11-12T20:38:07.918Z,67.26
2022-11-12T20:43:19.911Z,67.45
2022-11-12T20:48:31.747Z,67.62
2022-11-12T20:53:43.871Z,67.28
2022-11-12T20:58:55.179Z,67.21
2022-11-12T21:04:06.623Z,67.56
2022-11-12T21:09:19.490Z,67.40
2022-11-12T21:14:31.870Z,67.43
2022-11-12T21:19:43.844Z,67.55
2022-11-12T21:24:55.264Z,67.56
2022-11-12T21:30:06.756Z,67.85
2022-11-12T21:35:18.764Z,67.51
2022-11-12T21:40:30.817Z,67.47
2022-11-12T21:45:47.108Z,67.54
2022-11-12T21:51:03.930Z,67.26
2022-11-12T21:56:17.470Z,67.44
2022-11-12T22:01:30.772Z,67.11
2022-11-12T22:06:43.058Z,67.32
2022-11-12T22:11:55.071Z,67.39
2022-11-12T22:17:07.199Z,67.38
2022-11-12T22:22:18.501Z,67.29
2022-11-12T22:27:32.192Z,67.08
2022-11-12T22:32:44.137Z,67.07
2022-11-12T22:37:56.290Z,66.85
2022-11-12T22:43:06.538Z,66.59
2022-11-12T22:48:18.104Z,66.63
2022-11-12T22:53:30.462Z,66.76
2022-11-12T22:58:44.602Z,66.91
2022-11-12T23:03:58.436Z,66.83
2022-11-12T23:09:15.741Z,67.02
2022-11-12T23:14:27.647Z,66.90
2022-11-12T23:19:42.906Z,67.10
2022-11-12T23:24:55.263Z,66.70
2022-11-12T23:30:09.119Z,66.55
2022-11-12T23:35:21.467Z,66.41
2022-11-12T23:40:33.442Z,66.81
2022-11-12T23:45:45.218Z,66.34
2022-11-12T23:51:29.443Z,66.66
2022-11-12T23:56:40.332Z,66.40
